KITH/ITH METAR and TAF weather

Enter ICAO airport designator
Station Type Date Time Source
KITH METAR 2021/07/24 19:56 UTC NOAA

KITH 241956Z 16010KT 10SM BKN050 26/16 A3003 RMK AO2 SLP165 T02560161


Station Type Date Time Source
KITH Decoded METAR 2021/07/24 19:56 UTC NOAA

Ithaca, Ithaca Tompkins Regional Airport, NY, United States (KITH) 42-29-27N 076-27-30W
Jul 24, 2021 - 03:56 PM EDT / 2021.07.24 1956 UTC
Wind: from the SSE (160 degrees) at 12 MPH (10 KT):0
Visibility: 10 mile(s):0
Sky conditions: mostly cloudy
Temperature: 78.1 F (25.6 C)
Dew Point: 61.0 F (16.1 C)
Relative Humidity: 55%
Pressure (altimeter): 30.03 in. Hg (1016 hPa)
ob: KITH 241956Z 16010KT 10SM BKN050 26/16 A3003 RMK AO2 SLP165 T02560161
cycle: 20

Station Type Date Time Source
KITH TAF 2021/07/24 18:30 UTC NOAA

TAF KITH 241728Z 2418/2518 19007G12KT P6SM BKN040
FM250600 18011G16KT P6SM -SHRA OVC023
FM250900 19010G21KT 3SM TSRA BR BKN013CB
FM251100 19009KT P6SM BKN008
FM251500 24008G14KT P6SM BKN027

Example: see airport list